首页
METAR-TAF:

METAR-TAF

机场 :

卡什馬爾, 伊朗

纬度: 35-16-14N, 经度: 58-28-24E, 海拔: 1110米

当前天气观测

该预报发布于48分钟前的08:00 UTC
静风
温度 4°C
湿度 60%
气压 1022 hPa
能见度10公里或以上
少量云层高于4000英尺
多云层高于19000英尺

METAR: OIMQ 180800Z 00000KT 9999 FEW040 BKN190 04/M03 Q1022

时间: 12:18 (08:48 UTC)


TAF: 丢失

超过4000个机场的气象观测和天气预报(METAR&TAF报告)。

可查询的气象台以黄色和红色小点在地图上表示。

将鼠标移到小点上方,可查看气象台名称。

然后点击查看天气观测和预报。

如需切换地图:点击带黑十字的绿色按钮放大地图;点击带横线的绿色按钮缩小地图;或者点击绿色箭头查看邻近地区的地图。


METAR-TAF: